sensor_id;sensor_type;location;lat;lon;timestamp;temperature;humidity
64062;DHT22;50308;47.438;-1.528;2023-11-22T00:02:01;13.40;99.90
64062;DHT22;50308;47.438;-1.528;2023-11-22T00:04:27;13.40;99.90
64062;DHT22;50308;47.438;-1.528;2023-11-22T00:06:53;13.50;99.90
64062;DHT22;50308;47.438;-1.528;2023-11-22T00:09:18;13.50;99.90
64062;DHT22;50308;47.438;-1.528;2023-11-22T00:11:48;13.50;99.90
64062;DHT22;50308;47.438;-1.528;2023-11-22T00:14:15;13.50;99.90
64062;DHT22;50308;47.438;-1.528;2023-11-22T00:16:41;13.50;99.90
64062;DHT22;50308;47.438;-1.528;2023-11-22T00:19:06;13.50;99.90
64062;DHT22;50308;47.438;-1.528;2023-11-22T00:21:32;13.50;99.90
64062;DHT22;50308;47.438;-1.528;2023-11-22T00:23:58;13.40;99.90
64062;DHT22;50308;47.438;-1.528;2023-11-22T00:26:24;13.50;99.90
64062;DHT22;50308;47.438;-1.528;2023-11-22T00:28:50;13.50;99.90
64062;DHT22;50308;47.438;-1.528;2023-11-22T00:31:16;13.50;99.90
64062;DHT22;50308;47.438;-1.528;2023-11-22T00:33:41;13.50;99.90
64062;DHT22;50308;47.438;-1.528;2023-11-22T00:36:07;13.50;99.90
64062;DHT22;50308;47.438;-1.528;2023-11-22T00:38:34;13.50;99.90
64062;DHT22;50308;47.438;-1.528;2023-11-22T00:41:03;13.50;99.90
64062;DHT22;50308;47.438;-1.528;2023-11-22T00:43:28;13.50;99.90
64062;DHT22;50308;47.438;-1.528;2023-11-22T00:45:54;13.50;99.90
64062;DHT22;50308;47.438;-1.528;2023-11-22T00:48:20;13.50;99.90
64062;DHT22;50308;47.438;-1.528;2023-11-22T00:50:45;13.60;99.90
64062;DHT22;50308;47.438;-1.528;2023-11-22T00:53:11;13.60;99.90
64062;DHT22;50308;47.438;-1.528;2023-11-22T00:55:36;13.50;99.90
64062;DHT22;50308;47.438;-1.528;2023-11-22T00:58:02;13.50;99.90
64062;DHT22;50308;47.438;-1.528;2023-11-22T01:00:31;13.60;99.90
64062;DHT22;50308;47.438;-1.528;2023-11-22T01:02:56;13.60;99.90
64062;DHT22;50308;47.438;-1.528;2023-11-22T01:05:22;13.60;99.90
64062;DHT22;50308;47.438;-1.528;2023-11-22T01:07:48;13.50;99.90
64062;DHT22;50308;47.438;-1.528;2023-11-22T01:10:14;13.60;99.90
64062;DHT22;50308;47.438;-1.528;2023-11-22T01:12:41;13.50;99.90
64062;DHT22;50308;47.438;-1.528;2023-11-22T01:15:07;13.60;99.90
64062;DHT22;50308;47.438;-1.528;2023-11-22T01:17:34;13.60;99.90
64062;DHT22;50308;47.438;-1.528;2023-11-22T01:20:01;13.50;99.90
64062;DHT22;50308;47.438;-1.528;2023-11-22T01:22:26;13.50;99.90
64062;DHT22;50308;47.438;-1.528;2023-11-22T01:24:53;13.50;99.90
64062;DHT22;50308;47.438;-1.528;2023-11-22T01:27:19;13.60;99.90
64062;DHT22;50308;47.438;-1.528;2023-11-22T01:29:45;13.60;99.90
64062;DHT22;50308;47.438;-1.528;2023-11-22T01:32:10;13.60;99.90
64062;DHT22;50308;47.438;-1.528;2023-11-22T01:34:36;13.60;99.90
64062;DHT22;50308;47.438;-1.528;2023-11-22T01:37:03;13.60;99.90
64062;DHT22;50308;47.438;-1.528;2023-11-22T01:39:29;13.60;99.90
64062;DHT22;50308;47.438;-1.528;2023-11-22T01:41:54;13.60;99.90
64062;DHT22;50308;47.438;-1.528;2023-11-22T01:44:21;13.60;99.90
64062;DHT22;50308;47.438;-1.528;2023-11-22T01:46:46;13.60;99.90
64062;DHT22;50308;47.438;-1.528;2023-11-22T01:49:13;13.60;99.90
64062;DHT22;50308;47.438;-1.528;2023-11-22T01:51:40;13.60;99.90
64062;DHT22;50308;47.438;-1.528;2023-11-22T01:54:07;13.60;99.90
64062;DHT22;50308;47.438;-1.528;2023-11-22T01:56:35;13.60;99.90
64062;DHT22;50308;47.438;-1.528;2023-11-22T01:59:03;13.60;99.90
64062;DHT22;50308;47.438;-1.528;2023-11-22T02:01:30;13.60;99.90
64062;DHT22;50308;47.438;-1.528;2023-11-22T02:03:56;13.60;99.90
64062;DHT22;50308;47.438;-1.528;2023-11-22T02:06:23;13.60;99.90
64062;DHT22;50308;47.438;-1.528;2023-11-22T02:08:49;13.60;99.90
64062;DHT22;50308;47.438;-1.528;2023-11-22T02:11:17;13.60;99.90
64062;DHT22;50308;47.438;-1.528;2023-11-22T02:13:48;13.70;99.90
64062;DHT22;50308;47.438;-1.528;2023-11-22T02:16:15;13.60;99.90
64062;DHT22;50308;47.438;-1.528;2023-11-22T02:18:41;13.60;99.90
64062;DHT22;50308;47.438;-1.528;2023-11-22T02:21:08;13.70;99.90
64062;DHT22;50308;47.438;-1.528;2023-11-22T02:23:34;13.70;99.90
64062;DHT22;50308;47.438;-1.528;2023-11-22T02:25:59;13.60;99.90
64062;DHT22;50308;47.438;-1.528;2023-11-22T02:28:26;13.70;99.90
64062;DHT22;50308;47.438;-1.528;2023-11-22T02:30:51;13.70;99.90
64062;DHT22;50308;47.438;-1.528;2023-11-22T02:33:17;13.70;99.90
64062;DHT22;50308;47.438;-1.528;2023-11-22T02:35:42;13.60;99.90
64062;DHT22;50308;47.438;-1.528;2023-11-22T02:38:08;13.70;99.90
64062;DHT22;50308;47.438;-1.528;2023-11-22T02:40:34;13.60;99.90
64062;DHT22;50308;47.438;-1.528;2023-11-22T02:42:59;13.70;99.90
64062;DHT22;50308;47.438;-1.528;2023-11-22T02:45:32;13.70;99.90
64062;DHT22;50308;47.438;-1.528;2023-11-22T02:47:58;13.70;99.90
64062;DHT22;50308;47.438;-1.528;2023-11-22T02:50:27;13.70;99.90
64062;DHT22;50308;47.438;-1.528;2023-11-22T02:52:52;13.70;99.90
64062;DHT22;50308;47.438;-1.528;2023-11-22T02:55:18;13.70;99.90
64062;DHT22;50308;47.438;-1.528;2023-11-22T02:57:45;13.70;99.90
64062;DHT22;50308;47.438;-1.528;2023-11-22T03:00:11;13.70;99.90
64062;DHT22;50308;47.438;-1.528;2023-11-22T03:02:40;13.70;99.90
64062;DHT22;50308;47.438;-1.528;2023-11-22T03:05:09;13.70;99.90
64062;DHT22;50308;47.438;-1.528;2023-11-22T03:07:35;13.70;99.90
64062;DHT22;50308;47.438;-1.528;2023-11-22T03:10:02;13.70;99.90
64062;DHT22;50308;47.438;-1.528;2023-11-22T03:12:28;13.60;99.90
64062;DHT22;50308;47.438;-1.528;2023-11-22T03:14:53;13.60;99.90
64062;DHT22;50308;47.438;-1.528;2023-11-22T03:17:24;13.70;99.90
64062;DHT22;50308;47.438;-1.528;2023-11-22T03:19:49;13.70;99.90
64062;DHT22;50308;47.438;-1.528;2023-11-22T03:22:15;13.70;99.90
64062;DHT22;50308;47.438;-1.528;2023-11-22T03:24:41;13.70;99.90
64062;DHT22;50308;47.438;-1.528;2023-11-22T03:27:06;13.70;99.90
64062;DHT22;50308;47.438;-1.528;2023-11-22T03:29:32;13.70;99.90
64062;DHT22;50308;47.438;-1.528;2023-11-22T03:31:59;13.70;99.90
64062;DHT22;50308;47.438;-1.528;2023-11-22T03:34:24;13.70;99.90
64062;DHT22;50308;47.438;-1.528;2023-11-22T03:36:50;13.60;99.90
64062;DHT22;50308;47.438;-1.528;2023-11-22T03:39:16;13.70;99.90
64062;DHT22;50308;47.438;-1.528;2023-11-22T03:41:42;13.70;99.90
64062;DHT22;50308;47.438;-1.528;2023-11-22T03:44:08;13.70;99.90
64062;DHT22;50308;47.438;-1.528;2023-11-22T03:46:37;13.70;99.90
64062;DHT22;50308;47.438;-1.528;2023-11-22T03:49:04;13.70;99.90
64062;DHT22;50308;47.438;-1.528;2023-11-22T03:51:30;13.70;99.90
64062;DHT22;50308;47.438;-1.528;2023-11-22T03:53:56;13.70;99.90
64062;DHT22;50308;47.438;-1.528;2023-11-22T03:56:21;13.70;99.90
64062;DHT22;50308;47.438;-1.528;2023-11-22T03:58:47;13.70;99.90
64062;DHT22;50308;47.438;-1.528;2023-11-22T04:01:14;13.70;99.90
64062;DHT22;50308;47.438;-1.528;2023-11-22T04:03:41;13.70;99.90
64062;DHT22;50308;47.438;-1.528;2023-11-22T04:06:07;13.70;99.90
64062;DHT22;50308;47.438;-1.528;2023-11-22T04:08:33;13.70;99.90
64062;DHT22;50308;47.438;-1.528;2023-11-22T04:10:58;13.70;99.90
64062;DHT22;50308;47.438;-1.528;2023-11-22T04:13:24;13.70;99.90
64062;DHT22;50308;47.438;-1.528;2023-11-22T04:15:51;13.70;99.90
64062;DHT22;50308;47.438;-1.528;2023-11-22T04:18:16;13.70;99.90
64062;DHT22;50308;47.438;-1.528;2023-11-22T04:20:42;13.70;99.90
64062;DHT22;50308;47.438;-1.528;2023-11-22T04:23:08;13.70;99.90
64062;DHT22;50308;47.438;-1.528;2023-11-22T04:25:36;13.70;99.90
64062;DHT22;50308;47.438;-1.528;2023-11-22T04:28:03;13.60;99.90
64062;DHT22;50308;47.438;-1.528;2023-11-22T04:30:28;13.60;99.90
64062;DHT22;50308;47.438;-1.528;2023-11-22T04:32:54;13.60;99.90
64062;DHT22;50308;47.438;-1.528;2023-11-22T04:35:20;13.60;99.90
64062;DHT22;50308;47.438;-1.528;2023-11-22T04:37:47;13.60;99.90
64062;DHT22;50308;47.438;-1.528;2023-11-22T04:40:12;13.60;99.90
64062;DHT22;50308;47.438;-1.528;2023-11-22T04:42:40;13.60;99.90
64062;DHT22;50308;47.438;-1.528;2023-11-22T04:45:06;13.60;99.90
64062;DHT22;50308;47.438;-1.528;2023-11-22T04:47:32;13.60;99.90
64062;DHT22;50308;47.438;-1.528;2023-11-22T04:49:58;13.60;99.90
64062;DHT22;50308;47.438;-1.528;2023-11-22T04:52:24;13.60;99.90
64062;DHT22;50308;47.438;-1.528;2023-11-22T04:54:50;13.60;99.90
64062;DHT22;50308;47.438;-1.528;2023-11-22T04:57:15;13.60;99.90
64062;DHT22;50308;47.438;-1.528;2023-11-22T04:59:41;13.60;99.90
64062;DHT22;50308;47.438;-1.528;2023-11-22T05:02:08;13.50;99.90
64062;DHT22;50308;47.438;-1.528;2023-11-22T05:04:33;13.60;99.90
64062;DHT22;50308;47.438;-1.528;2023-11-22T05:06:59;13.60;99.90
64062;DHT22;50308;47.438;-1.528;2023-11-22T05:09:24;13.60;99.90
64062;DHT22;50308;47.438;-1.528;2023-11-22T05:11:50;13.50;99.90
64062;DHT22;50308;47.438;-1.528;2023-11-22T05:14:17;13.60;99.90
64062;DHT22;50308;47.438;-1.528;2023-11-22T05:16:43;13.60;99.90
64062;DHT22;50308;47.438;-1.528;2023-11-22T05:19:09;13.60;99.90
64062;DHT22;50308;47.438;-1.528;2023-11-22T05:21:34;13.60;99.90
64062;DHT22;50308;47.438;-1.528;2023-11-22T05:24:00;13.60;99.90
64062;DHT22;50308;47.438;-1.528;2023-11-22T05:26:25;13.50;99.90
64062;DHT22;50308;47.438;-1.528;2023-11-22T05:28:52;13.60;99.90
64062;DHT22;50308;47.438;-1.528;2023-11-22T05:31:20;13.50;99.90
64062;DHT22;50308;47.438;-1.528;2023-11-22T05:33:46;13.50;99.90
64062;DHT22;50308;47.438;-1.528;2023-11-22T05:36:11;13.50;99.90
64062;DHT22;50308;47.438;-1.528;2023-11-22T05:38:37;13.60;99.90
64062;DHT22;50308;47.438;-1.528;2023-11-22T05:41:03;13.60;99.90
64062;DHT22;50308;47.438;-1.528;2023-11-22T05:43:29;13.60;99.90
64062;DHT22;50308;47.438;-1.528;2023-11-22T05:45:55;13.50;99.90
64062;DHT22;50308;47.438;-1.528;2023-11-22T05:48:21;13.50;99.90
64062;DHT22;50308;47.438;-1.528;2023-11-22T05:50:47;13.50;99.90
64062;DHT22;50308;47.438;-1.528;2023-11-22T05:53:13;13.50;99.90
64062;DHT22;50308;47.438;-1.528;2023-11-22T05:55:48;13.50;99.90
64062;DHT22;50308;47.438;-1.528;2023-11-22T05:58:14;13.50;99.90
64062;DHT22;50308;47.438;-1.528;2023-11-22T06:00:48;13.50;99.90
64062;DHT22;50308;47.438;-1.528;2023-11-22T06:03:14;13.50;99.90
64062;DHT22;50308;47.438;-1.528;2023-11-22T06:05:40;13.50;99.90
64062;DHT22;50308;47.438;-1.528;2023-11-22T06:08:06;13.50;99.90
64062;DHT22;50308;47.438;-1.528;2023-11-22T06:10:32;13.50;99.90
64062;DHT22;50308;47.438;-1.528;2023-11-22T06:12:58;13.50;99.90
64062;DHT22;50308;47.438;-1.528;2023-11-22T06:15:23;13.50;99.90
64062;DHT22;50308;47.438;-1.528;2023-11-22T06:17:49;13.50;99.90
64062;DHT22;50308;47.438;-1.528;2023-11-22T06:20:15;13.50;99.90
64062;DHT22;50308;47.438;-1.528;2023-11-22T06:22:41;13.50;99.90
64062;DHT22;50308;47.438;-1.528;2023-11-22T06:25:11;13.50;99.90
64062;DHT22;50308;47.438;-1.528;2023-11-22T06:27:37;13.50;99.90
64062;DHT22;50308;47.438;-1.528;2023-11-22T06:30:03;13.50;99.90
64062;DHT22;50308;47.438;-1.528;2023-11-22T06:32:29;13.50;99.90
64062;DHT22;50308;47.438;-1.528;2023-11-22T06:34:54;13.40;99.90
64062;DHT22;50308;47.438;-1.528;2023-11-22T06:37:20;13.40;99.90
64062;DHT22;50308;47.438;-1.528;2023-11-22T06:39:46;13.50;99.90
64062;DHT22;50308;47.438;-1.528;2023-11-22T06:42:12;13.50;99.90
64062;DHT22;50308;47.438;-1.528;2023-11-22T06:44:39;13.50;99.90
64062;DHT22;50308;47.438;-1.528;2023-11-22T06:47:05;13.40;99.90
64062;DHT22;50308;47.438;-1.528;2023-11-22T06:49:33;13.40;99.90
64062;DHT22;50308;47.438;-1.528;2023-11-22T06:51:59;13.40;99.90
64062;DHT22;50308;47.438;-1.528;2023-11-22T06:54:25;13.40;99.90
64062;DHT22;50308;47.438;-1.528;2023-11-22T06:56:50;13.40;99.90
64062;DHT22;50308;47.438;-1.528;2023-11-22T06:59:17;13.40;99.90
64062;DHT22;50308;47.438;-1.528;2023-11-22T07:01:42;13.40;99.90
64062;DHT22;50308;47.438;-1.528;2023-11-22T07:04:08;13.40;99.90
64062;DHT22;50308;47.438;-1.528;2023-11-22T07:06:34;13.40;99.90
64062;DHT22;50308;47.438;-1.528;2023-11-22T07:09:01;13.50;99.90
64062;DHT22;50308;47.438;-1.528;2023-11-22T07:11:27;13.50;99.90
64062;DHT22;50308;47.438;-1.528;2023-11-22T07:13:56;13.50;99.90
64062;DHT22;50308;47.438;-1.528;2023-11-22T07:16:23;13.50;99.90
64062;DHT22;50308;47.438;-1.528;2023-11-22T07:18:50;13.50;99.90
64062;DHT22;50308;47.438;-1.528;2023-11-22T07:21:15;13.40;99.90
64062;DHT22;50308;47.438;-1.528;2023-11-22T07:23:42;13.40;99.90
64062;DHT22;50308;47.438;-1.528;2023-11-22T07:26:10;13.50;99.90
64062;DHT22;50308;47.438;-1.528;2023-11-22T07:28:36;13.50;99.90
64062;DHT22;50308;47.438;-1.528;2023-11-22T07:31:02;13.50;99.90
64062;DHT22;50308;47.438;-1.528;2023-11-22T07:33:31;13.40;99.90
64062;DHT22;50308;47.438;-1.528;2023-11-22T07:35:57;13.50;99.90
64062;DHT22;50308;47.438;-1.528;2023-11-22T07:38:24;13.40;99.90
64062;DHT22;50308;47.438;-1.528;2023-11-22T07:40:50;13.40;99.90
64062;DHT22;50308;47.438;-1.528;2023-11-22T07:43:16;13.40;99.90
64062;DHT22;50308;47.438;-1.528;2023-11-22T07:45:42;13.40;99.90
64062;DHT22;50308;47.438;-1.528;2023-11-22T07:48:10;13.30;99.90
64062;DHT22;50308;47.438;-1.528;2023-11-22T07:50:37;13.30;99.90
64062;DHT22;50308;47.438;-1.528;2023-11-22T07:53:04;13.30;99.90
64062;DHT22;50308;47.438;-1.528;2023-11-22T07:55:30;13.30;99.90
64062;DHT22;50308;47.438;-1.528;2023-11-22T07:57:56;13.30;99.90
64062;DHT22;50308;47.438;-1.528;2023-11-22T08:00:23;13.30;99.90
64062;DHT22;50308;47.438;-1.528;2023-11-22T08:02:48;13.30;99.90
64062;DHT22;50308;47.438;-1.528;2023-11-22T08:05:15;13.20;99.90
64062;DHT22;50308;47.438;-1.528;2023-11-22T08:07:42;13.20;99.90
64062;DHT22;50308;47.438;-1.528;2023-11-22T08:10:10;13.20;99.90
64062;DHT22;50308;47.438;-1.528;2023-11-22T08:12:47;13.20;99.90
64062;DHT22;50308;47.438;-1.528;2023-11-22T08:15:14;13.20;99.90
64062;DHT22;50308;47.438;-1.528;2023-11-22T08:17:40;13.20;99.90
64062;DHT22;50308;47.438;-1.528;2023-11-22T08:20:07;13.20;99.90
64062;DHT22;50308;47.438;-1.528;2023-11-22T08:22:38;13.20;99.90
64062;DHT22;50308;47.438;-1.528;2023-11-22T08:25:05;13.20;99.90
64062;DHT22;50308;47.438;-1.528;2023-11-22T08:27:31;13.10;99.90
64062;DHT22;50308;47.438;-1.528;2023-11-22T08:29:57;13.20;99.90
64062;DHT22;50308;47.438;-1.528;2023-11-22T08:32:23;13.20;99.90
64062;DHT22;50308;47.438;-1.528;2023-11-22T08:34:53;13.10;99.90
64062;DHT22;50308;47.438;-1.528;2023-11-22T08:37:18;13.20;99.90
64062;DHT22;50308;47.438;-1.528;2023-11-22T08:39:44;13.10;99.90
64062;DHT22;50308;47.438;-1.528;2023-11-22T08:42:10;13.20;99.90
64062;DHT22;50308;47.438;-1.528;2023-11-22T08:44:36;13.10;99.90
64062;DHT22;50308;47.438;-1.528;2023-11-22T08:47:02;13.20;99.90
64062;DHT22;50308;47.438;-1.528;2023-11-22T08:49:29;13.20;99.90
64062;DHT22;50308;47.438;-1.528;2023-11-22T08:51:56;13.20;99.90
64062;DHT22;50308;47.438;-1.528;2023-11-22T08:54:21;13.20;99.90
64062;DHT22;50308;47.438;-1.528;2023-11-22T08:56:47;13.20;99.90
64062;DHT22;50308;47.438;-1.528;2023-11-22T08:59:13;13.20;99.90
64062;DHT22;50308;47.438;-1.528;2023-11-22T09:01:39;13.20;99.90
64062;DHT22;50308;47.438;-1.528;2023-11-22T09:04:06;13.30;99.90
64062;DHT22;50308;47.438;-1.528;2023-11-22T09:06:33;13.30;99.90
64062;DHT22;50308;47.438;-1.528;2023-11-22T09:09:00;13.30;99.90
64062;DHT22;50308;47.438;-1.528;2023-11-22T09:11:26;13.30;99.90
64062;DHT22;50308;47.438;-1.528;2023-11-22T09:13:52;13.30;99.90
64062;DHT22;50308;47.438;-1.528;2023-11-22T09:16:22;13.30;99.90
64062;DHT22;50308;47.438;-1.528;2023-11-22T09:18:50;13.30;99.90
64062;DHT22;50308;47.438;-1.528;2023-11-22T09:21:16;13.30;99.90
64062;DHT22;50308;47.438;-1.528;2023-11-22T09:23:45;13.40;99.90
64062;DHT22;50308;47.438;-1.528;2023-11-22T09:26:10;13.40;99.90
64062;DHT22;50308;47.438;-1.528;2023-11-22T09:28:36;13.40;99.90
64062;DHT22;50308;47.438;-1.528;2023-11-22T09:31:02;13.40;99.90
64062;DHT22;50308;47.438;-1.528;2023-11-22T09:33:31;13.40;99.90
64062;DHT22;50308;47.438;-1.528;2023-11-22T09:35:57;13.40;99.90
64062;DHT22;50308;47.438;-1.528;2023-11-22T09:38:23;13.40;99.90
64062;DHT22;50308;47.438;-1.528;2023-11-22T09:40:50;13.40;99.90
64062;DHT22;50308;47.438;-1.528;2023-11-22T09:43:18;13.50;99.90
64062;DHT22;50308;47.438;-1.528;2023-11-22T09:45:47;13.50;99.90
64062;DHT22;50308;47.438;-1.528;2023-11-22T09:48:20;13.40;99.90
64062;DHT22;50308;47.438;-1.528;2023-11-22T09:56:09;13.50;99.90
64062;DHT22;50308;47.438;-1.528;2023-11-22T09:58:41;13.60;99.90
64062;DHT22;50308;47.438;-1.528;2023-11-22T10:01:13;13.50;99.90
64062;DHT22;50308;47.438;-1.528;2023-11-22T10:03:39;13.60;99.90
64062;DHT22;50308;47.438;-1.528;2023-11-22T10:06:05;13.60;99.90
64062;DHT22;50308;47.438;-1.528;2023-11-22T10:08:32;13.60;99.90
64062;DHT22;50308;47.438;-1.528;2023-11-22T10:10:59;13.60;99.90
64062;DHT22;50308;47.438;-1.528;2023-11-22T10:13:25;13.60;99.90
64062;DHT22;50308;47.438;-1.528;2023-11-22T10:15:52;13.60;99.90
64062;DHT22;50308;47.438;-1.528;2023-11-22T10:18:19;13.70;99.90
64062;DHT22;50308;47.438;-1.528;2023-11-22T10:20:47;13.70;99.90
64062;DHT22;50308;47.438;-1.528;2023-11-22T10:23:14;13.70;99.90
64062;DHT22;50308;47.438;-1.528;2023-11-22T10:25:44;13.70;99.90
64062;DHT22;50308;47.438;-1.528;2023-11-22T10:28:12;13.70;99.90
64062;DHT22;50308;47.438;-1.528;2023-11-22T10:30:38;13.70;99.90
64062;DHT22;50308;47.438;-1.528;2023-11-22T10:33:06;13.70;99.90
64062;DHT22;50308;47.438;-1.528;2023-11-22T10:35:31;13.70;99.90
64062;DHT22;50308;47.438;-1.528;2023-11-22T10:37:59;13.70;99.90
64062;DHT22;50308;47.438;-1.528;2023-11-22T10:40:28;13.80;99.90
64062;DHT22;50308;47.438;-1.528;2023-11-22T10:42:56;13.80;99.90
64062;DHT22;50308;47.438;-1.528;2023-11-22T10:45:23;13.80;99.90
64062;DHT22;50308;47.438;-1.528;2023-11-22T10:47:52;13.80;99.90
64062;DHT22;50308;47.438;-1.528;2023-11-22T10:50:20;13.80;99.90
64062;DHT22;50308;47.438;-1.528;2023-11-22T10:52:47;13.80;99.90
64062;DHT22;50308;47.438;-1.528;2023-11-22T10:55:19;13.80;99.90
64062;DHT22;50308;47.438;-1.528;2023-11-22T10:57:51;13.80;99.90
64062;DHT22;50308;47.438;-1.528;2023-11-22T11:00:19;13.80;99.90
64062;DHT22;50308;47.438;-1.528;2023-11-22T11:02:51;13.80;99.90
64062;DHT22;50308;47.438;-1.528;2023-11-22T11:05:24;13.80;99.90
64062;DHT22;50308;47.438;-1.528;2023-11-22T11:08:13;13.80;99.90
64062;DHT22;50308;47.438;-1.528;2023-11-22T11:10:44;13.80;99.90
64062;DHT22;50308;47.438;-1.528;2023-11-22T11:13:10;13.80;99.90
64062;DHT22;50308;47.438;-1.528;2023-11-22T11:15:40;13.80;99.90
64062;DHT22;50308;47.438;-1.528;2023-11-22T11:18:10;13.80;99.90
64062;DHT22;50308;47.438;-1.528;2023-11-22T11:20:57;13.90;99.90
64062;DHT22;50308;47.438;-1.528;2023-11-22T11:23:28;13.90;99.90
64062;DHT22;50308;47.438;-1.528;2023-11-22T11:25:55;13.90;99.90
64062;DHT22;50308;47.438;-1.528;2023-11-22T11:28:22;13.90;99.90
64062;DHT22;50308;47.438;-1.528;2023-11-22T11:30:52;13.90;99.90
64062;DHT22;50308;47.438;-1.528;2023-11-22T11:33:33;13.90;99.90
64062;DHT22;50308;47.438;-1.528;2023-11-22T11:36:01;13.90;99.90
64062;DHT22;50308;47.438;-1.528;2023-11-22T11:38:35;14.00;99.90
64062;DHT22;50308;47.438;-1.528;2023-11-22T11:41:11;14.00;99.90
64062;DHT22;50308;47.438;-1.528;2023-11-22T11:43:44;13.90;99.90
64062;DHT22;50308;47.438;-1.528;2023-11-22T11:46:15;14.00;99.90
64062;DHT22;50308;47.438;-1.528;2023-11-22T11:48:45;14.00;99.90
64062;DHT22;50308;47.438;-1.528;2023-11-22T11:51:18;14.00;99.90
64062;DHT22;50308;47.438;-1.528;2023-11-22T11:53:45;13.90;99.90
64062;DHT22;50308;47.438;-1.528;2023-11-22T11:56:11;14.00;99.90
64062;DHT22;50308;47.438;-1.528;2023-11-22T11:58:37;14.00;99.90
64062;DHT22;50308;47.438;-1.528;2023-11-22T12:01:06;14.00;99.90
64062;DHT22;50308;47.438;-1.528;2023-11-22T12:03:33;14.00;99.90
64062;DHT22;50308;47.438;-1.528;2023-11-22T12:05:59;14.00;99.90
64062;DHT22;50308;47.438;-1.528;2023-11-22T12:08:24;14.00;99.90
64062;DHT22;50308;47.438;-1.528;2023-11-22T12:10:50;14.00;99.90
64062;DHT22;50308;47.438;-1.528;2023-11-22T12:13:20;14.10;99.90
64062;DHT22;50308;47.438;-1.528;2023-11-22T12:15:51;14.00;99.90
64062;DHT22;50308;47.438;-1.528;2023-11-22T12:18:16;14.10;99.90
64062;DHT22;50308;47.438;-1.528;2023-11-22T12:20:54;14.10;99.90
64062;DHT22;50308;47.438;-1.528;2023-11-22T12:23:20;14.00;99.90
64062;DHT22;50308;47.438;-1.528;2023-11-22T12:25:47;14.00;99.90
64062;DHT22;50308;47.438;-1.528;2023-11-22T12:28:16;14.00;99.90
64062;DHT22;50308;47.438;-1.528;2023-11-22T12:30:43;14.00;99.90
64062;DHT22;50308;47.438;-1.528;2023-11-22T12:33:10;14.00;99.90
64062;DHT22;50308;47.438;-1.528;2023-11-22T12:35:38;14.10;99.90
64062;DHT22;50308;47.438;-1.528;2023-11-22T12:38:05;14.10;99.90
64062;DHT22;50308;47.438;-1.528;2023-11-22T12:40:32;14.10;99.90
64062;DHT22;50308;47.438;-1.528;2023-11-22T12:43:00;14.10;99.90
64062;DHT22;50308;47.438;-1.528;2023-11-22T12:45:27;14.10;99.90
64062;DHT22;50308;47.438;-1.528;2023-11-22T12:47:55;14.10;99.90
64062;DHT22;50308;47.438;-1.528;2023-11-22T12:52:57;14.10;99.90
64062;DHT22;50308;47.438;-1.528;2023-11-22T12:55:23;14.10;99.90
64062;DHT22;50308;47.438;-1.528;2023-11-22T12:58:01;14.10;99.90
64062;DHT22;50308;47.438;-1.528;2023-11-22T13:00:31;14.20;99.90
64062;DHT22;50308;47.438;-1.528;2023-11-22T13:02:58;14.20;99.90
64062;DHT22;50308;47.438;-1.528;2023-11-22T13:05:24;14.20;99.90
64062;DHT22;50308;47.438;-1.528;2023-11-22T13:07:50;14.20;99.90
64062;DHT22;50308;47.438;-1.528;2023-11-22T13:10:16;14.20;99.90
64062;DHT22;50308;47.438;-1.528;2023-11-22T13:12:43;14.20;99.90
64062;DHT22;50308;47.438;-1.528;2023-11-22T13:15:12;14.20;99.90
64062;DHT22;50308;47.438;-1.528;2023-11-22T13:17:40;14.20;99.90
64062;DHT22;50308;47.438;-1.528;2023-11-22T13:20:07;14.20;99.90
64062;DHT22;50308;47.438;-1.528;2023-11-22T13:22:42;14.20;99.90
64062;DHT22;50308;47.438;-1.528;2023-11-22T13:25:11;14.30;99.90
64062;DHT22;50308;47.438;-1.528;2023-11-22T13:27:38;14.20;99.90
64062;DHT22;50308;47.438;-1.528;2023-11-22T13:30:05;14.30;99.90
64062;DHT22;50308;47.438;-1.528;2023-11-22T13:32:31;14.30;99.90
64062;DHT22;50308;47.438;-1.528;2023-11-22T13:34:57;14.30;99.90
64062;DHT22;50308;47.438;-1.528;2023-11-22T13:37:25;14.30;99.90
64062;DHT22;50308;47.438;-1.528;2023-11-22T13:39:51;14.30;99.90
64062;DHT22;50308;47.438;-1.528;2023-11-22T13:42:17;14.30;99.90
64062;DHT22;50308;47.438;-1.528;2023-11-22T13:44:43;14.30;99.90
64062;DHT22;50308;47.438;-1.528;2023-11-22T13:47:12;14.40;99.90
64062;DHT22;50308;47.438;-1.528;2023-11-22T13:49:39;14.40;99.90
64062;DHT22;50308;47.438;-1.528;2023-11-22T13:52:05;14.40;99.90
64062;DHT22;50308;47.438;-1.528;2023-11-22T13:54:31;14.40;99.90
64062;DHT22;50308;47.438;-1.528;2023-11-22T13:56:59;14.40;99.90
64062;DHT22;50308;47.438;-1.528;2023-11-22T13:59:25;14.40;99.90
64062;DHT22;50308;47.438;-1.528;2023-11-22T14:01:51;14.40;99.90
64062;DHT22;50308;47.438;-1.528;2023-11-22T14:04:17;14.40;99.90
64062;DHT22;50308;47.438;-1.528;2023-11-22T14:06:43;14.40;99.90
64062;DHT22;50308;47.438;-1.528;2023-11-22T14:09:09;14.40;99.90
64062;DHT22;50308;47.438;-1.528;2023-11-22T14:11:38;14.40;99.90
64062;DHT22;50308;47.438;-1.528;2023-11-22T14:14:03;14.40;99.90
64062;DHT22;50308;47.438;-1.528;2023-11-22T14:16:29;14.40;99.90
64062;DHT22;50308;47.438;-1.528;2023-11-22T14:19:00;14.30;99.90
64062;DHT22;50308;47.438;-1.528;2023-11-22T14:21:25;14.30;99.90
64062;DHT22;50308;47.438;-1.528;2023-11-22T14:23:52;14.30;99.90
64062;DHT22;50308;47.438;-1.528;2023-11-22T14:26:18;14.30;99.90
64062;DHT22;50308;47.438;-1.528;2023-11-22T14:28:44;14.30;99.90
64062;DHT22;50308;47.438;-1.528;2023-11-22T14:31:09;14.30;99.90
64062;DHT22;50308;47.438;-1.528;2023-11-22T14:33:35;14.30;99.90
64062;DHT22;50308;47.438;-1.528;2023-11-22T14:36:01;14.30;99.90
64062;DHT22;50308;47.438;-1.528;2023-11-22T14:38:27;14.40;99.90
64062;DHT22;50308;47.438;-1.528;2023-11-22T14:40:52;14.30;99.90
64062;DHT22;50308;47.438;-1.528;2023-11-22T14:43:18;14.30;99.90
64062;DHT22;50308;47.438;-1.528;2023-11-22T14:45:44;14.40;99.90
64062;DHT22;50308;47.438;-1.528;2023-11-22T14:48:09;14.30;99.90
64062;DHT22;50308;47.438;-1.528;2023-11-22T14:50:37;14.30;99.90
64062;DHT22;50308;47.438;-1.528;2023-11-22T14:53:02;14.40;99.90
64062;DHT22;50308;47.438;-1.528;2023-11-22T14:55:28;14.40;99.90
64062;DHT22;50308;47.438;-1.528;2023-11-22T14:57:54;14.30;99.90
64062;DHT22;50308;47.438;-1.528;2023-11-22T15:00:22;14.30;99.90
64062;DHT22;50308;47.438;-1.528;2023-11-22T15:02:48;14.30;99.90
64062;DHT22;50308;47.438;-1.528;2023-11-22T15:05:18;14.30;99.90
64062;DHT22;50308;47.438;-1.528;2023-11-22T15:07:43;14.30;99.90
64062;DHT22;50308;47.438;-1.528;2023-11-22T15:10:12;14.30;99.90
64062;DHT22;50308;47.438;-1.528;2023-11-22T15:12:40;14.30;99.90
64062;DHT22;50308;47.438;-1.528;2023-11-22T15:15:08;14.30;99.90
64062;DHT22;50308;47.438;-1.528;2023-11-22T15:17:34;14.30;99.90
64062;DHT22;50308;47.438;-1.528;2023-11-22T15:20:00;14.30;99.90
64062;DHT22;50308;47.438;-1.528;2023-11-22T15:22:25;14.30;99.90